Strona główna
METAR-TAF:

METAR-TAF

Lotnisko :

Port lotniczy Bagdad

Bagdad, Irak

Szerokość geograficzna: 33-15-45N, Długość geograficzna: 44-14-04E, wysokość: 35 m

Aktualna obserwacja pogody

Raport powstał 29 minut temu, godzina 16:00 UTC
Wiatr 4 kt od zachodnio-północny zachód
Temperatura 32°C
Wilgotność 20%
Ciśnienie 1010 hPa
Widzialność 10 km lub więcej
Brak chmur poniżej 1500 m i brak chmur cumulonimbus

METAR: ORBI 231600Z 30004KT CAVOK 32/06 Q1010 NOSIG

czas: 19:29 (16:29 UTC)

Prognoza

Raport powstał 6 godziny i 29 minut temu, godzina 10:00 UTC
Prognoza ważna od 23 godzina 12 UTC do 24 godzina 12 UTC
Wiatr 10 kt od zachodnio-północny zachód
Widzialność: 8000 m

TAF: ORBI 231000Z 2312/2412 30010KT 8000 NSC

Obserwacja i prognoza pogody dla ponad 4000 lotnisk (raport METAR i TAF).

Dostępne stacje oznaczono żółtymi i czerwonymi punktami na mapie.

Najedź kursorem aby zobaczyć nazwę stacji.

Kliknij aby zobaczyć obserwacje i prognozy pogody.

Aby zmienić mapę: kliknij na zielony przycisk z czarnym krzyżykiem, aby powiększyć; na zielony przycisk z myślnikiem, aby pomniejszyć; na zielone strzałki, aby przejść do map sąsiednich.


METAR-TAF: